Galva, Kansas
Current Conditions -  °F | °C
As of 1:35 PM on Tuesday 21 Oct 2014 (Local Time) from KEWK Reporting Station
Few Clouds Few Clouds  
Wind Chill: 75°   Ceiling: Unl
Heat Index: 75°   Visibility: 10mi
Dew Point: 52°   Wind: 10mph
Humidity: 44%   Direction: 150°SSE
Pressure: 30.1"   Gusts: 17mph
Location:  38.38°N, 97.54°W
Report Text: KEWK 211835Z AUTO 15009G15KT 10SM FEW065 24/11 A3010 RMK AO1
Loading
Personal Weather Stations






























Interactive Weather Map
Tropical Storm Tracking
New forecast layout! Learn more

10-Day Weather Forecast

Advertisements
Track Severe Weather on mobile